Time;durP1;ratioP1;P1;durP2;ratioP2;P2;SDS_P1;SDS_P2;PMS_P1;PMS_P2;Temp;Humidity;BMP_temperature;BMP_pressure;BME280_temperature;BME280_humidity;BME280_pressure;Samples;Min_cycle;Max_cycle;Signal;HPM_P1;HPM_P2
2022/03/22 06:00:40;;;;;;;17.30;14.40;;;5.60;97.20;;;;;;1713691;28;20190;-72
2022/03/22 06:01:31;;;;;;;17.63;15.88;;;5.60;97.20;;;;;;1714516;28;20206;-72
2022/03/22 06:02:23;;;;;;;17.17;15.37;;;5.60;97.20;;;;;;1714510;28;20202;-73
2022/03/22 06:03:13;;;;;;;17.30;15.52;;;5.60;97.20;;;;;;1714578;28;20244;-73
2022/03/22 06:04:05;;;;;;;16.63;14.97;;;5.60;97.20;;;;;;1714448;28;20198;-73
2022/03/22 06:04:56;;;;;;;17.80;15.40;;;5.60;97.20;;;;;;1714374;28;20481;-73
2022/03/22 06:05:49;;;;;;;18.23;16.37;;;5.70;97.20;;;;;;1714581;28;20198;-73
2022/03/22 06:06:40;;;;;;;16.63;14.80;;;5.70;97.20;;;;;;1714357;28;20637;-73
2022/03/22 06:07:32;;;;;;;16.73;15.13;;;5.70;97.20;;;;;;1714343;28;20650;-74
2022/03/22 06:08:23;;;;;;;18.70;16.80;;;5.70;97.20;;;;;;1714130;28;20453;-73
2022/03/22 06:09:15;;;;;;;18.63;16.67;;;5.70;97.20;;;;;;1714431;28;20293;-73
2022/03/22 06:10:07;;;;;;;17.63;15.80;;;5.70;97.20;;;;;;1714386;28;20201;-73
2022/03/22 06:10:59;;;;;;;18.50;16.55;;;5.70;97.20;;;;;;1714447;28;20206;-73
2022/03/22 06:11:50;;;;;;;18.55;16.73;;;5.70;97.20;;;;;;1714458;28;20354;-73
2022/03/22 06:12:45;;;;;;;19.40;17.40;;;5.80;97.20;;;;;;1709511;28;20245;-73
2022/03/22 06:13:36;;;;;;;18.95;16.95;;;5.80;97.20;;;;;;1707820;29;20207;-72
2022/03/22 06:14:28;;;;;;;19.43;17.53;;;5.80;97.20;;;;;;1707831;29;20204;-72
2022/03/22 06:15:20;;;;;;;20.08;17.92;;;5.80;97.20;;;;;;1707603;29;20241;-72
2022/03/22 06:16:13;;;;;;;19.27;17.27;;;5.80;97.20;;;;;;1707778;29;20218;-72
2022/03/22 06:17:05;;;;;;;19.17;17.02;;;5.80;97.20;;;;;;1707795;29;20206;-72
2022/03/22 06:18:00;;;;;;;22.33;17.60;;;5.80;97.20;;;;;;1707756;28;20191;-73
2022/03/22 06:18:51;;;;;;;18.20;16.40;;;5.90;97.20;;;;;;1707716;29;20639;-73
2022/03/22 06:19:42;;;;;;;17.67;15.87;;;5.90;97.20;;;;;;1707656;29;20276;-72
2022/03/22 06:20:35;;;;;;;15.48;13.88;;;5.90;97.20;;;;;;1707757;29;20585;-72
2022/03/22 06:21:27;;;;;;;17.13;15.43;;;5.90;97.20;;;;;;1708783;28;20221;-72
2022/03/22 06:22:17;;;;;;;16.17;14.55;;;5.90;97.20;;;;;;1711885;28;20665;-73
2022/03/22 06:23:11;;;;;;;16.63;15.03;;;5.90;97.20;;;;;;1714160;28;20685;-72
2022/03/22 06:24:03;;;;;;;15.93;14.40;;;5.90;97.20;;;;;;1707623;28;20206;-73
2022/03/22 06:24:54;;;;;;;14.30;12.98;;;5.90;97.20;;;;;;1707719;29;20659;-72
2022/03/22 06:25:46;;;;;;;16.38;14.77;;;5.80;97.20;;;;;;1707720;29;20195;-72
2022/03/22 06:26:37;;;;;;;16.73;15.02;;;5.80;97.20;;;;;;1707674;29;20229;-72
2022/03/22 06:27:28;;;;;;;16.37;14.83;;;5.70;97.20;;;;;;1709984;28;20206;-72
2022/03/22 06:28:19;;;;;;;18.38;16.58;;;5.70;97.20;;;;;;1714009;28;20580;-72
2022/03/22 06:29:11;;;;;;;15.90;14.40;;;5.70;97.20;;;;;;1714290;28;20197;-72
2022/03/22 06:30:03;;;;;;;14.02;12.73;;;5.70;97.20;;;;;;1714233;28;20449;-73
2022/03/22 06:30:55;;;;;;;16.25;14.55;;;5.60;97.20;;;;;;1708222;28;20614;-72
2022/03/22 06:31:47;;;;;;;16.48;14.77;;;5.70;97.20;;;;;;1707378;28;20202;-73
2022/03/22 06:32:42;;;;;;;17.13;15.32;;;5.70;97.20;;;;;;1707731;29;20198;-71
2022/03/22 06:33:34;;;;;;;16.40;14.80;;;5.70;97.20;;;;;;1707633;29;20225;-73
2022/03/22 06:34:25;;;;;;;17.88;15.80;;;5.80;97.20;;;;;;1707312;29;20236;-73
2022/03/22 06:35:19;;;;;;;16.55;14.90;;;5.80;97.20;;;;;;1707578;28;20663;-72
2022/03/22 06:36:09;;;;;;;15.82;14.32;;;5.90;97.20;;;;;;1707796;28;20206;-73
2022/03/22 06:37:01;;;;;;;16.07;14.10;;;5.90;97.20;;;;;;1707728;28;20210;-73
2022/03/22 06:37:52;;;;;;;15.98;14.38;;;5.90;97.20;;;;;;1707722;29;20494;-73
2022/03/22 06:38:44;;;;;;;16.58;14.90;;;6.00;97.20;;;;;;1707153;28;20217;-73
2022/03/22 06:39:34;;;;;;;18.40;15.02;;;6.00;97.20;;;;;;1707554;28;20257;-73
2022/03/22 06:40:29;;;;;;;16.13;14.53;;;6.10;97.20;;;;;;1707434;29;20211;-72
2022/03/22 06:41:20;;;;;;;16.77;14.88;;;6.10;97.20;;;;;;1706913;29;20361;-73
2022/03/22 06:42:11;;;;;;;15.95;14.30;;;6.10;97.20;;;;;;1707596;29;20210;-73
2022/03/22 06:43:04;;;;;;;15.90;14.30;;;6.20;97.20;;;;;;1707647;28;20691;-72
2022/03/22 06:43:55;;;;;;;16.83;15.10;;;6.20;97.20;;;;;;1707575;28;20209;-72
2022/03/22 06:44:47;;;;;;;16.23;14.73;;;6.30;97.20;;;;;;1707632;29;20202;-71
2022/03/22 06:45:38;;;;;;;16.95;15.07;;;6.30;97.20;;;;;;1707502;28;20470;-72
2022/03/22 06:46:32;;;;;;;16.55;14.93;;;6.40;97.20;;;;;;1707726;29;20577;-72
2022/03/22 06:47:24;;;;;;;16.42;14.75;;;6.40;97.20;;;;;;1707604;29;20584;-72
2022/03/22 06:48:16;;;;;;;20.23;14.52;;;6.50;97.20;;;;;;1707254;28;20207;-73
2022/03/22 06:49:08;;;;;;;17.15;15.45;;;6.50;97.20;;;;;;1711750;28;20206;-73
2022/03/22 06:50:00;;;;;;;16.73;15.00;;;6.60;97.20;;;;;;1714175;28;20266;-72
2022/03/22 06:50:52;;;;;;;16.88;15.18;;;6.60;97.20;;;;;;1714244;28;20213;-72
2022/03/22 06:51:43;;;;;;;18.20;15.45;;;6.70;97.20;;;;;;1714104;28;20214;-72
2022/03/22 06:52:35;;;;;;;18.17;16.27;;;6.70;97.20;;;;;;1714182;28;20209;-72
2022/03/22 06:53:25;;;;;;;16.83;15.13;;;6.80;97.20;;;;;;1713447;28;20205;-73
2022/03/22 06:54:17;;;;;;;17.13;15.33;;;6.80;97.20;;;;;;1713341;28;20277;-73
2022/03/22 06:55:09;;;;;;;17.23;15.50;;;6.90;97.20;;;;;;1713533;28;20744;-72
2022/03/22 06:56:01;;;;;;;17.23;15.52;;;7.00;97.20;;;;;;1714128;28;20679;-72
2022/03/22 06:56:52;;;;;;;17.52;15.68;;;7.00;97.20;;;;;;1713169;28;20209;-72
2022/03/22 06:57:43;;;;;;;17.83;15.90;;;7.10;97.20;;;;;;1713691;28;20204;-72
2022/03/22 06:58:35;;;;;;;17.20;15.45;;;7.10;97.20;;;;;;1713426;28;20477;-73
2022/03/22 06:59:26;;;;;;;17.85;15.95;;;7.20;97.20;;;;;;1713602;28;20253;-73
2022/03/22 07:00:20;;;;;;;18.13;16.33;;;7.20;97.20;;;;;;1713660;28;20197;-73
2022/03/22 07:01:10;;;;;;;17.40;15.60;;;7.20;97.20;;;;;;1707994;28;20445;-73
2022/03/22 07:02:04;;;;;;;18.33;16.33;;;7.30;97.20;;;;;;1714091;28;20193;-73
2022/03/22 07:02:57;;;;;;;18.13;16.30;;;7.30;97.20;;;;;;1714130;28;20206;-72
2022/03/22 07:03:49;;;;;;;18.45;16.40;;;7.40;97.20;;;;;;1713892;28;20344;-73
2022/03/22 07:04:39;;;;;;;18.92;16.92;;;7.40;97.20;;;;;;1714177;28;20654;-73
2022/03/22 07:05:32;;;;;;;18.27;16.30;;;7.40;97.20;;;;;;1714034;28;20241;-72
2022/03/22 07:06:22;;;;;;;18.10;16.30;;;7.50;97.20;;;;;;1713863;28;20205;-72
2022/03/22 07:07:15;;;;;;;17.93;16.10;;;7.50;97.20;;;;;;1714129;28;20289;-72
2022/03/22 07:08:07;;;;;;;18.85;16.20;;;7.60;97.20;;;;;;1713729;28;20209;-73
2022/03/22 07:08:57;;;;;;;18.52;16.42;;;7.60;97.20;;;;;;1714181;28;20582;-72
2022/03/22 07:09:49;;;;;;;18.37;16.00;;;7.70;97.20;;;;;;1713793;28;20567;-72
2022/03/22 07:10:40;;;;;;;18.50;16.70;;;7.70;97.20;;;;;;1713938;28;20202;-74
2022/03/22 07:12:52;;;;;;;18.08;16.17;;;7.80;97.20;;;;;;1714213;28;20272;-71
2022/03/22 07:13:43;;;;;;;17.35;15.55;;;7.90;97.20;;;;;;1713834;28;20253;-72
2022/03/22 07:14:35;;;;;;;16.63;14.83;;;8.00;97.20;;;;;;1714019;28;20194;-72
2022/03/22 07:15:30;;;;;;;18.70;16.23;;;8.00;97.20;;;;;;1713702;28;20790;-73
2022/03/22 07:16:27;;;;;;;20.35;14.95;;;8.10;97.20;;;;;;1714071;28;20743;-73
2022/03/22 07:17:18;;;;;;;18.80;16.00;;;8.20;97.20;;;;;;1714072;28;20206;-72
2022/03/22 07:18:13;;;;;;;17.93;15.70;;;8.20;97.20;;;;;;1713720;28;20206;-72
2022/03/22 07:19:04;;;;;;;23.05;16.60;;;8.30;97.20;;;;;;1713943;28;20577;-72
2022/03/22 07:19:55;;;;;;;18.70;15.57;;;8.40;97.20;;;;;;1714032;28;20276;-72
2022/03/22 07:20:46;;;;;;;17.50;15.55;;;8.40;97.20;;;;;;1713779;28;20202;-72
2022/03/22 07:21:38;;;;;;;18.63;16.43;;;8.50;97.20;;;;;;1713630;28;20208;-73
2022/03/22 07:22:29;;;;;;;25.73;17.05;;;8.60;97.20;;;;;;1710498;28;20228;-72
2022/03/22 07:23:21;;;;;;;19.90;16.58;;;8.60;97.20;;;;;;1714016;28;20245;-72
2022/03/22 07:24:13;;;;;;;25.08;16.77;;;8.60;97.20;;;;;;1713934;28;20230;-72
2022/03/22 07:25:05;;;;;;;19.90;17.42;;;8.70;97.20;;;;;;1713976;28;20289;-72
2022/03/22 07:25:56;;;;;;;19.30;17.02;;;8.80;97.20;;;;;;1714034;28;20209;-72
2022/03/22 07:26:48;;;;;;;19.20;16.77;;;8.80;97.20;;;;;;1713950;28;20202;-72
2022/03/22 07:27:39;;;;;;;19.27;17.23;;;8.90;97.20;;;;;;1713734;28;20484;-73
2022/03/22 07:28:31;;;;;;;23.67;17.47;;;8.90;97.20;;;;;;1713231;28;20198;-73
2022/03/22 07:29:21;;;;;;;19.98;17.25;;;9.00;97.20;;;;;;1714043;28;20241;-72
2022/03/22 07:30:14;;;;;;;20.87;16.90;;;9.10;97.20;;;;;;1707690;28;20198;-72
2022/03/22 07:31:05;;;;;;;22.40;17.05;;;9.20;97.20;;;;;;1711063;28;20470;-72
2022/03/22 07:31:58;;;;;;;22.93;17.90;;;9.30;97.20;;;;;;1711794;28;20217;-72
2022/03/22 07:32:49;;;;;;;21.60;17.40;;;9.30;97.20;;;;;;1711041;28;20197;-72
2022/03/22 07:33:42;;;;;;;23.08;18.30;;;9.40;97.20;;;;;;1712716;28;20284;-72
2022/03/22 07:34:33;;;;;;;20.55;18.00;;;9.50;97.20;;;;;;1707313;28;20198;-72
2022/03/22 07:35:25;;;;;;;22.05;16.50;;;9.50;97.20;;;;;;1711015;28;20217;-72
2022/03/22 07:36:16;;;;;;;17.95;16.15;;;9.60;97.20;;;;;;1712386;28;20197;-72
2022/03/22 07:37:07;;;;;;;18.57;16.77;;;9.60;97.20;;;;;;1713309;28;20211;-73
2022/03/22 07:37:58;;;;;;;18.40;16.50;;;9.60;97.20;;;;;;1713193;28;20300;-72
2022/03/22 07:38:50;;;;;;;18.80;16.03;;;9.60;97.10;;;;;;1712881;28;20210;-72
2022/03/22 07:39:41;;;;;;;18.13;16.25;;;9.60;97.20;;;;;;1713025;28;20252;-73
2022/03/22 07:40:33;;;;;;;19.67;15.03;;;9.70;97.00;;;;;;1713166;28;20252;-72
2022/03/22 07:41:24;;;;;;;20.58;18.38;;;9.70;97.00;;;;;;1712909;28;20207;-73
2022/03/22 07:42:15;;;;;;;19.47;17.53;;;9.70;97.10;;;;;;1713037;28;20206;-72
2022/03/22 07:43:07;;;;;;;20.08;17.85;;;9.70;97.20;;;;;;1712889;28;20504;-72
2022/03/22 07:43:58;;;;;;;18.27;16.27;;;9.80;97.20;;;;;;1712773;28;20716;-72
2022/03/22 07:44:49;;;;;;;22.20;18.73;;;9.90;97.20;;;;;;1713787;28;20752;-72
2022/03/22 07:45:41;;;;;;;19.63;17.63;;;9.90;97.10;;;;;;1713551;28;20597;-72
2022/03/22 07:46:33;;;;;;;20.20;16.80;;;10.00;96.80;;;;;;1713860;28;20248;-72
2022/03/22 07:47:25;;;;;;;19.52;17.08;;;10.00;96.30;;;;;;1713281;28;20234;-72
2022/03/22 07:48:16;;;;;;;22.98;18.25;;;10.00;96.00;;;;;;1712880;28;20212;-73
2022/03/22 07:53:47;;;;;;;19.48;17.45;;;10.20;95.80;;;;;;1707216;29;20214;-72
2022/03/22 07:54:39;;;;;;;24.20;17.35;;;10.30;96.10;;;;;;1712397;28;20232;-72
2022/03/22 07:55:32;;;;;;;19.45;17.45;;;10.40;96.40;;;;;;1713677;28;20228;-72
2022/03/22 07:56:23;;;;;;;18.45;16.60;;;10.40;96.30;;;;;;1713859;28;20697;-72
2022/03/22 07:57:15;;;;;;;25.27;18.70;;;10.50;96.20;;;;;;1713917;28;20604;-72
2022/03/22 07:58:07;;;;;;;18.30;16.30;;;10.60;96.10;;;;;;1713056;28;20236;-73
2022/03/22 07:58:58;;;;;;;19.65;17.65;;;10.70;96.00;;;;;;1713560;28;20810;-72
2022/03/22 07:59:50;;;;;;;20.23;18.13;;;10.80;95.80;;;;;;1713068;28;20217;-72
2022/03/22 08:00:42;;;;;;;21.70;16.38;;;10.90;95.10;;;;;;1713533;28;20233;-71
2022/03/22 08:01:33;;;;;;;19.75;16.55;;;11.00;94.60;;;;;;1713913;28;20209;-73
2022/03/22 08:02:25;;;;;;;19.23;17.33;;;11.00;93.90;;;;;;1713796;28;20324;-72
2022/03/22 08:03:18;;;;;;;18.92;17.02;;;11.10;93.60;;;;;;1713906;28;20206;-73
2022/03/22 08:04:10;;;;;;;21.27;16.98;;;11.10;93.80;;;;;;1713746;28;20686;-72
2022/03/22 08:05:02;;;;;;;21.52;17.88;;;11.10;93.80;;;;;;1713767;28;20240;-72
2022/03/22 08:05:53;;;;;;;19.23;17.23;;;11.20;93.90;;;;;;1713448;28;20197;-72
2022/03/22 08:06:44;;;;;;;19.02;17.13;;;11.20;93.70;;;;;;1713678;28;20225;-72
2022/03/22 08:07:36;;;;;;;18.50;16.53;;;11.20;93.10;;;;;;1713794;28;20245;-73
2022/03/22 08:08:28;;;;;;;18.10;16.30;;;11.30;92.90;;;;;;1713530;28;20680;-73
2022/03/22 08:09:19;;;;;;;19.08;17.10;;;11.30;92.50;;;;;;1713423;28;20214;-73
2022/03/22 08:10:10;;;;;;;17.37;15.67;;;11.40;92.40;;;;;;1713837;28;20222;-72
2022/03/22 08:11:05;;;;;;;18.73;16.75;;;11.40;92.20;;;;;;1713799;28;20563;-73
2022/03/22 08:11:56;;;;;;;18.52;16.00;;;11.50;92.30;;;;;;1713720;28;20677;-72
2022/03/22 08:12:48;;;;;;;19.63;17.20;;;11.60;92.40;;;;;;1713776;28;20669;-72
2022/03/22 08:13:39;;;;;;;19.38;16.20;;;11.70;92.40;;;;;;1713551;28;20453;-72
2022/03/22 08:14:30;;;;;;;19.08;17.02;;;11.80;92.60;;;;;;1713737;28;20205;-73
2022/03/22 08:15:22;;;;;;;19.40;16.63;;;11.90;92.90;;;;;;1713174;28;20308;-72
2022/03/22 08:16:14;;;;;;;20.27;17.45;;;12.10;93.30;;;;;;1713749;28;20708;-72
2022/03/22 08:17:06;;;;;;;18.88;16.05;;;12.20;93.20;;;;;;1713780;28;20213;-72
2022/03/22 08:17:57;;;;;;;20.95;17.17;;;12.30;92.80;;;;;;1713651;28;20245;-73
2022/03/22 08:18:48;;;;;;;21.57;17.07;;;12.50;92.80;;;;;;1713344;28;20212;-73
2022/03/22 08:19:42;;;;;;;21.30;17.73;;;12.60;92.60;;;;;;1707013;28;20657;-72
2022/03/22 08:20:33;;;;;;;23.83;17.48;;;12.70;92.20;;;;;;1709256;28;20237;-72
2022/03/22 08:21:24;;;;;;;22.63;17.80;;;12.80;91.70;;;;;;1713493;28;20222;-73
2022/03/22 08:22:16;;;;;;;21.37;17.30;;;12.90;91.40;;;;;;1713242;28;20205;-73
2022/03/22 08:23:08;;;;;;;21.90;18.85;;;13.00;91.20;;;;;;1712443;28;20251;-72
2022/03/22 08:24:00;;;;;;;20.50;17.38;;;13.10;90.50;;;;;;1713769;28;20337;-72
2022/03/22 08:24:52;;;;;;;18.90;15.85;;;13.20;89.90;;;;;;1713571;28;20253;-72
2022/03/22 08:25:46;;;;;;;18.60;16.63;;;13.20;89.50;;;;;;1713823;28;20201;-73
2022/03/22 08:26:37;;;;;;;21.60;17.08;;;13.20;89.10;;;;;;1713662;28;20205;-72
2022/03/22 08:27:28;;;;;;;19.83;17.80;;;13.30;89.30;;;;;;1713680;28;20212;-72
2022/03/22 08:28:21;;;;;;;19.38;16.17;;;13.30;89.40;;;;;;1713464;28;20507;-72
2022/03/22 08:29:11;;;;;;;25.92;18.20;;;13.40;89.30;;;;;;1713674;28;20209;-73
2022/03/22 08:30:06;;;;;;;18.93;16.93;;;13.40;89.10;;;;;;1713402;28;20194;-72
2022/03/22 08:30:58;;;;;;;18.67;16.77;;;13.50;89.10;;;;;;1713569;28;20585;-73
2022/03/22 08:31:49;;;;;;;20.52;18.52;;;13.50;89.40;;;;;;1713687;28;20202;-73
2022/03/22 08:32:42;;;;;;;19.70;17.67;;;13.60;89.50;;;;;;1713797;28;20201;-72
2022/03/22 08:33:33;;;;;;;22.02;17.65;;;13.70;89.70;;;;;;1713344;28;20457;-72
2022/03/22 08:34:24;;;;;;;22.13;17.57;;;13.80;89.20;;;;;;1713701;28;20221;-73
2022/03/22 08:35:17;;;;;;;19.63;16.60;;;13.80;89.00;;;;;;1713702;28;20268;-73
2022/03/22 08:36:09;;;;;;;20.73;18.20;;;13.90;88.80;;;;;;1713285;28;20202;-72
2022/03/22 08:37:00;;;;;;;20.60;18.52;;;14.00;88.50;;;;;;1713736;28;20202;-72
2022/03/22 08:37:52;;;;;;;19.70;17.67;;;14.00;88.50;;;;;;1713710;28;20677;-73
2022/03/22 08:38:42;;;;;;;19.80;17.17;;;14.10;88.30;;;;;;1713399;28;20665;-73
2022/03/22 08:39:34;;;;;;;20.93;18.73;;;14.10;88.20;;;;;;1713566;28;20567;-73
2022/03/22 08:40:25;;;;;;;22.58;17.52;;;14.20;88.30;;;;;;1713406;28;20212;-73
2022/03/22 08:41:17;;;;;;;21.60;17.37;;;14.30;88.10;;;;;;1713801;28;20208;-73
2022/03/22 08:42:08;;;;;;;21.25;17.63;;;14.40;88.10;;;;;;1713705;28;20264;-73
2022/03/22 08:43:00;;;;;;;19.17;17.17;;;14.40;87.50;;;;;;1713658;28;20259;-73
2022/03/22 08:43:52;;;;;;;19.10;17.25;;;14.50;87.30;;;;;;1713669;28;20911;-72
2022/03/22 08:44:44;;;;;;;19.58;17.27;;;14.60;87.40;;;;;;1713746;28;20599;-73
2022/03/22 08:45:35;;;;;;;19.20;17.20;;;14.60;87.10;;;;;;1713424;28;20218;-72
2022/03/22 08:46:27;;;;;;;20.83;17.33;;;14.70;86.80;;;;;;1713644;28;20677;-72
2022/03/22 08:47:18;;;;;;;19.77;17.80;;;14.90;86.60;;;;;;1713782;28;20237;-72
2022/03/22 08:48:11;;;;;;;20.17;18.17;;;14.90;86.40;;;;;;1713083;28;20190;-72
2022/03/22 08:49:02;;;;;;;19.50;17.38;;;15.00;86.00;;;;;;1713708;28;20453;-73
2022/03/22 08:49:53;;;;;;;20.97;18.60;;;15.00;85.80;;;;;;1713177;28;20221;-73
2022/03/22 08:50:48;;;;;;;21.42;17.95;;;15.10;85.40;;;;;;1706395;28;20202;-72
2022/03/22 08:51:39;;;;;;;21.70;17.70;;;15.10;85.40;;;;;;1708943;28;20609;-73
2022/03/22 08:52:31;;;;;;;21.83;17.87;;;15.20;85.50;;;;;;1712300;28;20603;-73
2022/03/22 08:53:23;;;;;;;19.10;17.10;;;15.40;86.00;;;;;;1713661;28;20237;-73
2022/03/22 08:54:16;;;;;;;19.38;17.42;;;15.50;85.50;;;;;;1713483;28;20723;-73
2022/03/22 08:55:11;;;;;;;19.02;16.90;;;15.60;85.30;;;;;;1713282;28;20264;-73
2022/03/22 08:56:04;;;;;;;19.75;17.63;;;15.70;84.70;;;;;;1714781;28;20198;-73
2022/03/22 08:56:54;;;;;;;19.30;17.35;;;15.80;84.50;;;;;;1714960;28;20289;-73
2022/03/22 08:57:48;;;;;;;24.40;17.50;;;15.90;84.50;;;;;;1714907;28;20205;-73
2022/03/22 08:58:39;;;;;;;19.27;17.33;;;16.00;84.40;;;;;;1714341;28;20206;-73
2022/03/22 08:59:30;;;;;;;19.73;17.67;;;16.10;84.20;;;;;;1714702;28;20202;-73
2022/03/22 09:00:22;;;;;;;22.63;17.58;;;16.20;83.80;;;;;;1714453;28;20202;-73
2022/03/22 09:01:14;;;;;;;19.92;17.98;;;16.30;83.30;;;;;;1714572;28;20572;-73
2022/03/22 09:02:05;;;;;;;19.60;17.70;;;16.50;83.10;;;;;;1714863;28;20216;-73
2022/03/22 09:02:57;;;;;;;22.97;17.93;;;16.90;83.00;;;;;;1714851;28;20209;-73
2022/03/22 09:06:07;;;;;;;23.88;17.40;;;17.70;82.50;;;;;;1714842;28;20210;-73
2022/03/22 09:06:18;;;;;;;19.00;17.10;;;19.50;79.20;;;;;;1694062;29;20275;-73
2022/03/22 09:07:09;;;;;;;18.50;16.60;;;20.90;77.40;;;;;;1698800;28;20667;-73
2022/03/22 09:08:01;;;;;;;18.50;16.80;;;22.20;75.70;;;;;;1708068;28;20609;-73
2022/03/22 09:08:52;;;;;;;19.20;17.10;;;23.70;73.80;;;;;;1708065;28;20666;-73
2022/03/22 09:09:44;;;;;;;18.57;16.67;;;25.10;71.60;;;;;;1714326;28;20551;-76
2022/03/22 09:10:36;;;;;;;19.10;16.60;;;26.40;69.70;;;;;;1714789;28;20201;-76
2022/03/22 09:11:28;;;;;;;19.98;17.65;;;27.80;67.40;;;;;;1714820;28;20194;-76
2022/03/22 09:12:18;;;;;;;18.98;16.98;;;29.00;65.50;;;;;;1714827;28;20719;-76
2022/03/22 09:13:10;;;;;;;18.80;16.53;;;30.20;63.80;;;;;;1714807;28;20669;-73
2022/03/22 09:14:01;;;;;;;20.48;18.23;;;31.30;62.50;;;;;;1714826;28;20661;-76
2022/03/22 09:14:53;;;;;;;19.60;17.00;;;32.30;61.00;;;;;;1714555;28;20190;-76
2022/03/22 09:15:44;;;;;;;19.75;17.85;;;33.20;59.70;;;;;;1714376;28;20214;-76
2022/03/22 09:16:37;;;;;;;18.58;16.77;;;34.10;58.40;;;;;;1714786;28;20198;-76
2022/03/22 09:17:28;;;;;;;19.02;17.00;;;34.90;57.20;;;;;;1714713;28;20359;-76
2022/03/22 09:18:21;;;;;;;20.05;18.15;;;35.60;56.20;;;;;;1714493;28;20209;-76
2022/03/22 09:19:13;;;;;;;18.70;16.88;;;36.20;55.40;;;;;;1714707;28;20201;-76
2022/03/22 09:20:05;;;;;;;19.83;17.85;;;36.80;54.60;;;;;;1714617;28;20260;-76
2022/03/22 09:20:56;;;;;;;19.05;17.27;;;37.40;53.80;;;;;;1714616;28;20194;-76
2022/03/22 09:21:48;;;;;;;20.95;18.60;;;38.00;53.20;;;;;;1714450;28;20232;-76
2022/03/22 09:22:42;;;;;;;18.85;17.13;;;38.50;52.20;;;;;;1714270;28;20252;-76
2022/03/22 09:23:33;;;;;;;19.55;17.73;;;39.00;51.40;;;;;;1707952;28;20202;-76
2022/03/22 09:24:25;;;;;;;19.93;17.60;;;39.40;50.40;;;;;;1708165;28;20217;-74
2022/03/22 09:25:16;;;;;;;19.40;17.67;;;39.70;50.10;;;;;;1714092;28;20222;-74
2022/03/22 09:26:08;;;;;;;20.17;18.27;;;40.00;49.50;;;;;;1714641;28;20209;-76
2022/03/22 09:26:59;;;;;;;19.50;17.58;;;40.30;49.20;;;;;;1714777;28;20209;-76
2022/03/22 09:27:51;;;;;;;19.00;17.00;;;40.70;49.00;;;;;;1714711;28;20227;-76
2022/03/22 09:28:42;;;;;;;19.05;17.33;;;41.00;48.40;;;;;;1714340;28;20313;-74
2022/03/22 09:29:33;;;;;;;19.13;17.33;;;41.40;48.10;;;;;;1714610;28;20379;-76
2022/03/22 09:30:24;;;;;;;20.17;17.48;;;41.70;47.90;;;;;;1714185;28;20229;-76
2022/03/22 09:31:16;;;;;;;19.70;16.10;;;42.20;47.80;;;;;;1714198;28;20645;-76
2022/03/22 09:32:07;;;;;;;17.80;16.30;;;42.60;47.30;;;;;;1714569;28;20456;-76
2022/03/22 09:32:59;;;;;;;19.40;17.53;;;42.90;47.10;;;;;;1714683;28;20580;-76
2022/03/22 09:33:51;;;;;;;18.60;16.90;;;43.30;46.70;;;;;;1714627;28;20441;-76
2022/03/22 09:34:43;;;;;;;18.03;16.53;;;43.70;46.10;;;;;;1714631;28;20458;-74
2022/03/22 09:35:35;;;;;;;19.20;17.30;;;44.00;45.70;;;;;;1714335;28;20480;-74
2022/03/22 09:36:27;;;;;;;19.03;17.43;;;44.20;44.50;;;;;;1714829;28;21045;-74
2022/03/22 09:37:19;;;;;;;18.20;16.50;;;44.40;45.00;;;;;;1714615;28;20472;-76
2022/03/22 09:38:11;;;;;;;19.23;17.40;;;44.30;44.50;;;;;;1714274;28;20453;-75
2022/03/22 09:39:04;;;;;;;19.60;17.73;;;44.50;44.40;;;;;;1714665;28;20477;-76
2022/03/22 09:39:56;;;;;;;18.50;16.80;;;44.60;44.40;;;;;;1714513;28;20450;-74
2022/03/22 09:40:48;;;;;;;18.60;16.97;;;44.90;44.30;;;;;;1714389;28;20453;-76
2022/03/22 09:41:39;;;;;;;20.23;18.40;;;45.10;44.00;;;;;;1714655;28;20445;-76
2022/03/22 09:42:30;;;;;;;17.93;16.33;;;45.30;43.70;;;;;;1714552;28;20443;-76
2022/03/22 09:43:22;;;;;;;19.17;17.37;;;45.50;43.60;;;;;;1714523;28;20547;-76
2022/03/22 09:44:17;;;;;;;18.23;16.53;;;45.70;43.50;;;;;;1714557;28;20449;-74
2022/03/22 09:45:09;;;;;;;18.47;16.77;;;46.00;43.20;;;;;;1714521;28;20445;-76
2022/03/22 09:46:04;;;;;;;18.43;16.63;;;46.20;43.30;;;;;;1713904;28;20453;-76
2022/03/22 09:46:56;;;;;;;17.80;16.40;;;46.40;42.90;;;;;;1714542;28;20987;-76
2022/03/22 09:47:47;;;;;;;18.50;17.03;;;46.50;42.40;;;;;;1714585;28;20438;-76
2022/03/22 09:48:39;;;;;;;19.63;17.90;;;46.50;42.20;;;;;;1714299;28;20444;-76
2022/03/22 09:49:30;;;;;;;19.67;17.97;;;46.60;41.90;;;;;;1714416;28;20205;-76
2022/03/22 09:51:44;;;;;;;19.63;17.53;;;46.50;41.90;;;;;;1714516;28;20448;-76
2022/03/22 09:51:48;;;;;;;19.27;17.60;;;46.30;41.50;;;;;;1707870;29;20426;-76
2022/03/22 09:52:41;;;;;;;19.20;17.60;;;46.10;41.70;;;;;;1709283;28;20521;-76
2022/03/22 09:53:32;;;;;;;18.70;17.17;;;46.10;41.40;;;;;;1714175;28;20968;-74
2022/03/22 09:54:25;;;;;;;18.57;16.97;;;46.10;41.40;;;;;;1714400;28;20865;-74
2022/03/22 09:55:16;;;;;;;19.10;17.20;;;46.20;41.40;;;;;;1714377;28;20717;-76
2022/03/22 09:56:09;;;;;;;18.50;16.80;;;46.30;41.50;;;;;;1714469;28;20885;-76
2022/03/22 09:56:59;;;;;;;18.73;17.13;;;46.40;41.20;;;;;;1714584;28;20992;-76
2022/03/22 09:57:51;;;;;;;18.17;16.67;;;46.50;41.30;;;;;;1714499;28;20848;-76
2022/03/22 09:58:42;;;;;;;19.40;17.50;;;46.80;41.20;;;;;;1714225;28;20209;-76
2022/03/22 09:59:34;;;;;;;18.47;16.87;;;47.10;41.20;;;;;;1714306;28;20442;-76
2022/03/22 10:00:26;;;;;;;19.20;17.40;;;47.40;41.20;;;;;;1714279;28;20284;-76
2022/03/22 10:01:18;;;;;;;19.10;17.47;;;47.70;40.90;;;;;;1714549;28;20449;-76
2022/03/22 10:02:10;;;;;;;18.97;17.17;;;47.90;40.90;;;;;;1714385;28;20511;-76
2022/03/22 10:03:01;;;;;;;19.03;17.53;;;48.20;40.70;;;;;;1714484;28;20444;-76
2022/03/22 10:03:57;;;;;;;18.00;16.40;;;48.50;40.30;;;;;;1714373;28;20869;-76
2022/03/22 10:04:48;;;;;;;18.30;16.60;;;48.70;39.90;;;;;;1714460;28;20441;-74
2022/03/22 10:05:43;;;;;;;17.83;16.23;;;48.60;39.30;;;;;;1714283;28;20497;-76
2022/03/22 10:06:35;;;;;;;18.43;16.83;;;48.50;39.60;;;;;;1713615;28;20449;-76
2022/03/22 10:07:27;;;;;;;18.50;16.53;;;48.60;39.60;;;;;;1714221;28;20813;-76
2022/03/22 10:08:20;;;;;;;18.40;16.80;;;48.60;39.50;;;;;;1714113;28;20948;-74
2022/03/22 10:09:11;;;;;;;18.83;17.33;;;48.70;39.20;;;;;;1713730;28;20461;-76
2022/03/22 10:10:06;;;;;;;17.47;16.07;;;48.60;39.20;;;;;;1714427;28;20445;-76
2022/03/22 10:11:00;;;;;;;18.10;16.60;;;48.70;39.50;;;;;;1714262;28;20261;-76
2022/03/22 10:11:52;;;;;;;17.10;15.60;;;48.90;39.40;;;;;;1714258;28;20867;-76
2022/03/22 10:12:43;;;;;;;18.93;17.33;;;49.20;39.60;;;;;;1714100;28;20965;-76
2022/03/22 10:13:51;;;;;;;17.60;16.07;;;49.50;39.30;;;;;;1713654;28;21209;-76
2022/03/22 10:14:43;;;;;;;18.83;17.00;;;49.80;38.60;;;;;;1714204;28;20209;-74
2022/03/22 10:15:36;;;;;;;17.37;15.97;;;50.00;38.90;;;;;;1713637;28;21065;-76
2022/03/22 10:16:28;;;;;;;18.50;16.90;;;50.30;38.80;;;;;;1713270;28;20441;-76
2022/03/22 10:17:19;;;;;;;18.03;16.43;;;50.40;38.60;;;;;;1713869;28;20465;-76
2022/03/22 10:18:12;;;;;;;17.33;15.93;;;50.70;38.60;;;;;;1713664;28;20445;-77
2022/03/22 10:19:17;;;;;;;18.00;16.30;;;50.90;38.30;;;;;;1713515;28;20948;-75
2022/03/22 10:20:20;;;;;;;17.40;16.00;;;51.10;37.90;;;;;;1713592;28;20441;-76
2022/03/22 10:21:11;;;;;;;17.87;16.37;;;51.30;38.20;;;;;;1714113;28;20441;-77
2022/03/22 10:22:10;;;;;;;16.30;15.00;;;51.40;38.10;;;;;;1714116;28;20517;-75
2022/03/22 10:23:02;;;;;;;17.67;16.37;;;51.50;38.00;;;;;;1713694;28;20194;-76
2022/03/22 10:23:56;;;;;;;17.23;15.90;;;51.60;37.90;;;;;;1713920;28;20449;-74
2022/03/22 10:24:48;;;;;;;18.20;16.70;;;51.70;37.60;;;;;;1714182;28;20866;-77
2022/03/22 10:25:42;;;;;;;17.00;15.40;;;51.80;37.40;;;;;;1714180;28;20461;-77
2022/03/22 10:26:33;;;;;;;17.70;15.97;;;51.90;37.40;;;;;;1714344;28;20446;-77
2022/03/22 10:27:27;;;;;;;17.73;16.33;;;52.00;37.20;;;;;;1714387;28;20452;-74
2022/03/22 10:28:18;;;;;;;17.53;16.13;;;52.20;37.20;;;;;;1714077;28;20484;-76
2022/03/22 10:29:11;;;;;;;16.83;15.40;;;52.40;36.80;;;;;;1713958;28;20437;-76
2022/03/22 10:30:05;;;;;;;17.57;16.13;;;52.40;36.60;;;;;;1713855;28;20233;-76
2022/03/22 10:30:58;;;;;;;17.73;16.20;;;52.30;36.30;;;;;;1714042;28;20440;-74
2022/03/22 10:31:49;;;;;;;17.73;16.23;;;52.30;36.60;;;;;;1713793;28;20449;-77
2022/03/22 10:32:44;;;;;;;17.23;15.70;;;52.40;36.70;;;;;;1713960;28;20445;-76
2022/03/22 10:33:34;;;;;;;19.10;17.37;;;52.60;36.80;;;;;;1713927;28;20540;-77